Time;durP1;ratioP1;P1;durP2;ratioP2;P2;SDS_P1;SDS_P2;PMS_P1;PMS_P2;Temp;Humidity;BMP_temperature;BMP_pressure;BME280_temperature;BME280_humidity;BME280_pressure;Samples;Min_cycle;Max_cycle;Signal;HPM_P1;HPM_P2
2022/10/01 00:00:54;;;;;;;7.65;3.80;;;;;;;21.69;49.43;99977.38;5111818;28;20615;-37
2022/10/01 00:03:23;;;;;;;7.90;3.97;;;;;;;21.57;49.89;99980.34;5111928;28;20024;-37
2022/10/01 00:06:04;;;;;;;4.47;3.40;;;;;;;21.53;49.84;99979.25;5111746;28;20483;-36
2022/10/01 00:08:30;;;;;;;4.53;3.70;;;;;;;21.53;49.67;99984.69;5111768;28;20026;-36
2022/10/01 00:10:57;;;;;;;6.57;3.90;;;;;;;21.55;49.93;99991.47;5111410;28;20060;-36
2022/10/01 00:13:22;;;;;;;4.55;3.80;;;;;;;21.45;50.31;99980.63;5111777;28;20015;-36
2022/10/01 00:15:48;;;;;;;7.65;4.20;;;;;;;21.40;50.60;99980.56;5111589;28;20015;-36
2022/10/01 00:18:13;;;;;;;4.72;4.10;;;;;;;21.36;50.43;99976.78;5111598;28;20144;-36
2022/10/01 00:20:44;;;;;;;7.18;3.72;;;;;;;21.30;50.72;99975.97;5111535;28;20043;-36
2022/10/01 00:23:10;;;;;;;7.82;4.18;;;;;;;21.29;50.79;99977.88;5111459;28;20066;-36
2022/10/01 00:25:36;;;;;;;6.50;4.05;;;;;;;21.12;51.51;99974.59;5111473;28;20753;-36
2022/10/01 00:28:01;;;;;;;7.05;4.30;;;;;;;21.13;51.44;99978.09;5111206;28;20026;-42
2022/10/01 00:30:27;;;;;;;5.85;3.83;;;;;;;20.98;51.84;99977.00;5111005;27;20045;-42
2022/10/01 00:32:53;;;;;;;7.07;3.85;;;;;;;21.07;51.45;99967.25;5111466;28;20118;-42
2022/10/01 00:35:21;;;;;;;5.50;3.95;;;;;;;21.17;51.42;99981.91;5110871;28;20427;-42
2022/10/01 00:37:49;;;;;;;5.45;3.78;;;;;;;21.15;51.96;99976.78;5111043;27;20053;-42
2022/10/01 00:40:16;;;;;;;5.33;3.60;;;;;;;21.08;52.05;99965.38;5110971;28;20028;-42
2022/10/01 00:42:42;;;;;;;7.45;3.90;;;;;;;21.06;52.21;99975.66;5111301;28;20418;-42
2022/10/01 00:45:10;;;;;;;6.53;4.10;;;;;;;21.03;52.05;99968.88;5110978;28;20499;-42
2022/10/01 00:47:43;;;;;;;8.30;3.92;;;;;;;21.06;52.04;99962.94;5111192;28;20031;-42
2022/10/01 00:50:23;;;;;;;6.15;4.07;;;;;;;21.05;51.56;99966.72;5110527;28;20106;-42
2022/10/01 00:52:55;;;;;;;5.35;4.00;;;;;;;21.13;51.35;99962.66;5110757;28;20031;-42
2022/10/01 00:55:29;;;;;;;6.40;4.00;;;;;;;21.05;52.00;99961.31;5111288;28;20034;-42
2022/10/01 00:57:55;;;;;;;6.93;4.03;;;;;;;20.94;52.56;99956.94;5109354;28;20110;-42
2022/10/01 01:00:21;;;;;;;7.20;4.55;;;;;;;20.76;52.60;99950.16;5110890;28;20027;-42
2022/10/01 01:02:47;;;;;;;6.82;3.72;;;;;;;20.73;51.98;99950.69;5111017;28;20054;-42
2022/10/01 01:05:13;;;;;;;9.00;4.20;;;;;;;20.78;52.29;99966.13;5110891;28;20110;-42
2022/10/01 01:07:43;;;;;;;8.45;4.47;;;;;;;20.75;52.27;99972.84;5110480;28;20118;-42
2022/10/01 01:10:09;;;;;;;7.93;4.07;;;;;;;20.94;52.38;99980.50;5110479;28;20024;-42
2022/10/01 01:12:40;;;;;;;6.63;4.00;;;;;;;20.96;52.29;99978.31;5110639;28;20030;-42
2022/10/01 01:15:11;;;;;;;7.65;4.22;;;;;;;20.90;52.94;99982.91;5110860;28;20558;-42
2022/10/01 01:17:55;;;;;;;6.72;4.00;;;;;;;20.81;52.87;99977.22;5110387;28;20020;-43
2022/10/01 01:21:05;;;;;;;9.57;4.38;;;;;;;20.74;53.08;99967.72;5110351;28;20047;-42
2022/10/01 01:23:40;;;;;;;7.30;4.68;;;;;;;20.79;52.96;99965.03;5078640;28;20487;-42
2022/10/01 01:26:30;;;;;;;7.88;4.40;;;;;;;20.84;53.01;99968.56;5110591;28;20468;-42
2022/10/01 01:29:05;;;;;;;6.32;4.40;;;;;;;20.80;52.72;99966.66;5110131;28;20042;-42
2022/10/01 01:31:37;;;;;;;5.00;4.03;;;;;;;20.85;52.52;99972.09;5110231;28;20040;-42
2022/10/01 01:34:11;;;;;;;4.85;4.13;;;;;;;20.70;53.23;99981.78;5110347;28;20057;-42
2022/10/01 01:36:43;;;;;;;8.38;4.30;;;;;;;20.62;53.67;99971.47;5110065;28;20485;-42
2022/10/01 01:39:11;;;;;;;8.32;4.60;;;;;;;20.54;53.66;99966.53;5109986;28;20081;-42
2022/10/01 01:41:47;;;;;;;6.47;4.72;;;;;;;20.50;53.49;99973.53;5109953;28;20506;-42
2022/10/01 01:44:15;;;;;;;6.07;4.47;;;;;;;20.62;53.67;99976.03;5109944;28;20069;-42
2022/10/01 01:46:45;;;;;;;8.38;4.85;;;;;;;20.53;53.38;99988.44;5109512;28;20057;-42
2022/10/01 01:49:14;;;;;;;7.90;4.85;;;;;;;20.51;53.37;99996.81;5109731;28;20023;-42
2022/10/01 01:51:44;;;;;;;8.10;4.25;;;;;;;20.41;54.04;99999.44;5109629;28;20053;-42
2022/10/01 01:54:10;;;;;;;5.30;4.40;;;;;;;20.44;54.07;99997.03;5109625;28;20480;-42
2022/10/01 01:56:36;;;;;;;9.18;4.78;;;;;;;20.50;53.79;99996.00;5110050;28;20026;-42
2022/10/01 01:59:02;;;;;;;8.35;4.50;;;;;;;20.29;54.16;99986.94;5110070;28;20085;-42
2022/10/01 02:01:33;;;;;;;8.88;4.93;;;;;;;20.21;54.72;99987.44;5110233;28;20015;-42
2022/10/01 02:04:04;;;;;;;7.40;4.63;;;;;;;20.21;54.98;99983.94;5110080;28;20065;-42
2022/10/01 02:06:47;;;;;;;6.78;4.60;;;;;;;20.16;54.97;99990.09;5109734;28;20077;-42
2022/10/01 02:09:50;;;;;;;11.13;5.20;;;;;;;20.17;54.72;99985.53;5109675;28;20015;-41
2022/10/01 02:12:23;;;;;;;7.43;4.68;;;;;;;20.08;55.26;99996.00;5095426;28;20103;-42
2022/10/01 02:14:57;;;;;;;13.27;4.60;;;;;;;20.09;55.21;99995.75;5109122;28;20490;-42
2022/10/01 02:17:40;;;;;;;8.20;4.95;;;;;;;20.06;55.23;100004.38;5109315;28;20027;-42
2022/10/01 02:20:14;;;;;;;9.27;4.60;;;;;;;20.03;55.21;100001.38;5108898;28;20039;-42
2022/10/01 02:22:57;;;;;;;12.63;4.85;;;;;;;19.97;55.38;99999.72;5109212;28;20062;-43
2022/10/01 02:25:26;;;;;;;11.95;5.03;;;;;;;20.05;55.16;100010.06;5109024;28;20483;-42
2022/10/01 02:27:54;;;;;;;;;;;;;;;20.27;54.62;100005.31;5110226;28;20027;-42
2022/10/01 02:30:20;;;;;;;7.55;4.38;;;;;;;20.11;54.80;100007.13;5109205;28;19958;-42
2022/10/01 02:32:49;;;;;;;7.38;4.57;;;;;;;20.13;55.01;100004.16;5109353;28;20047;-42
2022/10/01 02:35:18;;;;;;;7.93;4.60;;;;;;;20.07;55.17;100000.59;5109274;28;20051;-42
2022/10/01 02:37:48;;;;;;;9.60;4.65;;;;;;;20.08;54.83;100004.91;5109303;28;20112;-42
2022/10/01 02:40:18;;;;;;;8.68;4.85;;;;;;;20.04;55.16;100011.13;5109523;28;20103;-42
2022/10/01 02:42:51;;;;;;;8.27;4.50;;;;;;;20.00;54.78;100018.13;5110025;28;20098;-42
2022/10/01 02:45:21;;;;;;;8.43;4.43;;;;;;;20.00;54.98;100018.91;5109841;28;20129;-42
2022/10/01 02:47:54;;;;;;;11.57;4.60;;;;;;;19.95;54.80;100015.38;5109633;28;20031;-42
2022/10/01 02:50:22;;;;;;;6.25;4.25;;;;;;;19.87;54.71;100016.66;5109747;28;20126;-42
2022/10/01 02:53:00;;;;;;;5.75;4.55;;;;;;;19.99;54.84;100011.91;5109912;28;20455;-42
2022/10/01 02:55:30;;;;;;;6.57;4.55;;;;;;;20.03;54.75;100014.88;5109683;28;20031;-42
2022/10/01 02:57:56;;;;;;;6.57;4.50;;;;;;;20.06;54.24;100015.19;5109775;28;20023;-41
2022/10/01 03:00:22;;;;;;;6.78;4.30;;;;;;;19.95;54.47;100013.47;5113159;28;20027;-42
2022/10/01 03:02:49;;;;;;;7.13;4.13;;;;;;;19.99;55.18;100013.78;5113585;28;20036;-42
2022/10/01 03:05:15;;;;;;;5.88;4.38;;;;;;;19.90;55.24;100019.66;5112853;28;20413;-42
2022/10/01 03:07:42;;;;;;;8.23;4.60;;;;;;;20.01;54.74;100025.97;5112691;28;20409;-42
2022/10/01 03:10:09;;;;;;;7.20;4.50;;;;;;;19.95;54.95;100029.69;5112576;28;20028;-42
2022/10/01 03:12:35;;;;;;;11.13;4.75;;;;;;;19.98;55.31;100031.06;5112636;28;20075;-42
2022/10/01 03:15:01;;;;;;;6.78;4.70;;;;;;;20.13;54.93;100031.16;5112767;27;20520;-42
2022/10/01 03:17:27;;;;;;;7.22;4.40;;;;;;;20.14;54.87;100035.47;5113050;28;20546;-42
2022/10/01 03:19:52;;;;;;;6.60;4.40;;;;;;;20.22;54.85;100021.50;5112756;28;20057;-42
2022/10/01 03:22:22;;;;;;;7.97;4.47;;;;;;;20.22;55.03;100028.78;5111752;28;20088;-43
2022/10/01 03:24:49;;;;;;;9.27;4.57;;;;;;;20.13;54.76;100036.56;5112711;28;20759;-41
2022/10/01 03:27:14;;;;;;;9.32;4.63;;;;;;;20.11;55.05;100027.91;5112946;28;20123;-43
2022/10/01 03:29:40;;;;;;;12.15;4.80;;;;;;;20.09;54.87;100030.06;5112679;28;20111;-43
2022/10/01 03:32:05;;;;;;;9.38;5.53;;;;;;;20.17;54.74;100028.78;5112587;27;20032;-43
2022/10/01 03:34:31;;;;;;;24.40;17.90;;;;;;;20.21;54.70;100025.28;5112667;28;20035;-43
2022/10/01 03:36:56;;;;;;;13.05;8.00;;;;;;;20.27;54.16;100028.81;5112632;28;20024;-43
2022/10/01 03:39:21;;;;;;;7.78;5.00;;;;;;;20.30;54.35;100018.31;5112436;28;20030;-42
2022/10/01 03:41:47;;;;;;;7.18;4.55;;;;;;;20.39;54.48;100007.84;5112826;28;20785;-43
2022/10/01 03:44:13;;;;;;;9.50;4.40;;;;;;;20.36;54.25;100016.44;5112396;28;20072;-41
2022/10/01 03:46:38;;;;;;;8.43;4.90;;;;;;;20.39;54.09;100021.34;5112103;28;20019;-42
2022/10/01 03:49:03;;;;;;;9.13;4.60;;;;;;;20.37;54.14;100026.19;5112528;28;20456;-43
2022/10/01 03:51:30;;;;;;;9.80;4.70;;;;;;;20.22;54.78;100037.72;5112150;28;20034;-41
2022/10/01 03:53:56;;;;;;;9.98;4.60;;;;;;;20.20;55.06;100047.97;5112078;28;20042;-43
2022/10/01 03:56:22;;;;;;;8.55;4.57;;;;;;;20.17;55.32;100043.09;5112544;28;20501;-43
2022/10/01 03:58:47;;;;;;;7.95;4.57;;;;;;;20.23;55.24;100055.53;5112172;28;20157;-43
2022/10/01 04:01:13;;;;;;;5.18;4.35;;;;;;;20.25;55.17;100050.69;5112524;28;20072;-43
2022/10/01 04:03:39;;;;;;;40.50;26.02;;;;;;;20.29;54.75;100051.78;5112153;28;20016;-43
2022/10/01 04:06:04;;;;;;;53.67;34.03;;;;;;;20.40;54.37;100062.69;5111727;28;20051;-42
2022/10/01 04:08:30;;;;;;;12.45;8.13;;;;;;;20.45;54.12;100065.44;5111380;28;20019;-43
2022/10/01 04:10:55;;;;;;;9.85;5.00;;;;;;;20.47;54.12;100082.19;5111404;28;20103;-42
2022/10/01 04:13:20;;;;;;;6.60;4.65;;;;;;;20.24;54.33;100084.22;5111626;28;20023;-42
2022/10/01 04:15:47;;;;;;;7.30;4.38;;;;;;;20.17;54.71;100075.50;5111814;28;20176;-42
2022/10/01 04:18:16;;;;;;;8.35;4.50;;;;;;;20.20;53.95;100063.34;5111602;28;20042;-42
2022/10/01 04:20:41;;;;;;;8.90;4.75;;;;;;;20.34;53.48;100066.44;5111628;28;20116;-42
2022/10/01 04:23:07;;;;;;;5.88;4.15;;;;;;;20.31;53.50;100067.75;5112165;28;20152;-41
2022/10/01 04:25:32;;;;;;;7.90;4.30;;;;;;;20.39;53.51;100075.41;5111815;28;20599;-42
2022/10/01 04:28:03;;;;;;;7.00;4.18;;;;;;;20.42;54.03;100084.88;5111598;28;20137;-41
2022/10/01 04:30:36;;;;;;;5.45;4.30;;;;;;;20.45;53.76;100095.16;5111517;28;20121;-42
2022/10/01 04:33:01;;;;;;;8.82;5.57;;;;;;;20.45;55.04;100090.56;5111471;28;20016;-42
2022/10/01 04:35:27;;;;;;;44.92;29.73;;;;;;;20.53;54.56;100078.44;5111496;28;20024;-42
2022/10/01 04:38:02;;;;;;;49.17;36.97;;;;;;;20.47;53.94;100076.78;5111534;28;20020;-41
2022/10/01 04:40:29;;;;;;;16.48;11.70;;;;;;;20.33;54.39;100075.59;5111096;28;20494;-41
2022/10/01 04:42:55;;;;;;;9.27;6.38;;;;;;;20.53;54.63;100088.47;5111555;27;20074;-42
2022/10/01 04:45:20;;;;;;;6.75;5.88;;;;;;;20.52;54.53;100087.63;5111439;28;20437;-43
2022/10/01 04:47:50;;;;;;;8.30;5.15;;;;;;;20.47;54.99;100090.31;5111227;28;20393;-42
2022/10/01 04:50:17;;;;;;;8.10;4.53;;;;;;;20.68;54.08;100096.69;5110998;27;20027;-42
2022/10/01 04:52:42;;;;;;;8.32;4.50;;;;;;;20.89;53.60;100098.41;5111047;28;20028;-43
2022/10/01 04:55:08;;;;;;;15.18;10.10;;;;;;;21.00;53.04;100099.28;5111119;28;20035;-42
2022/10/01 04:57:35;;;;;;;15.82;10.82;;;;;;;21.34;52.12;100100.75;5111220;28;20042;-43
2022/10/01 05:00:03;;;;;;;6.88;5.47;;;;;;;21.51;51.63;100090.53;5111056;28;20026;-43
2022/10/01 05:02:28;;;;;;;6.40;4.10;;;;;;;21.71;51.34;100083.53;5111395;28;20027;-43
2022/10/01 05:04:54;;;;;;;7.38;4.38;;;;;;;21.76;51.02;100078.94;5110892;28;20019;-43
2022/10/01 05:07:21;;;;;;;5.40;4.03;;;;;;;22.03;50.02;100075.16;5110948;28;20026;-42
2022/10/01 05:09:47;;;;;;;11.25;4.40;;;;;;;22.41;48.93;100064.84;5110648;28;20023;-42
2022/10/01 05:12:12;;;;;;;8.85;4.38;;;;;;;22.52;48.32;100063.72;5110389;28;20027;-42
2022/10/01 05:14:38;;;;;;;7.40;4.28;;;;;;;22.62;48.08;100060.19;5110754;28;20026;-43
2022/10/01 05:17:05;;;;;;;8.23;4.88;;;;;;;22.80;47.96;100058.75;5110733;28;20022;-43
2022/10/01 05:19:31;;;;;;;10.13;4.57;;;;;;;22.55;48.70;100065.09;5110671;28;20047;-43
2022/10/01 05:21:56;;;;;;;7.32;4.60;;;;;;;22.67;48.61;100060.16;5110150;28;20098;-43
2022/10/01 05:24:22;;;;;;;8.32;4.32;;;;;;;22.85;48.09;100066.88;5110701;28;20470;-43
2022/10/01 05:26:48;;;;;;;12.20;5.05;;;;;;;22.85;48.30;100069.59;5110841;28;20042;-43
2022/10/01 05:29:13;;;;;;;12.10;8.15;;;;;;;23.15;47.96;100073.28;5110434;28;20558;-43
2022/10/01 05:31:42;;;;;;;9.57;6.93;;;;;;;23.34;46.81;100059.88;5110758;28;20076;-43
2022/10/01 05:34:08;;;;;;;9.98;6.22;;;;;;;23.52;46.88;100053.78;5110786;28;20043;-43
2022/10/01 05:36:34;;;;;;;9.70;5.00;;;;;;;24.00;46.37;100069.50;5110828;28;20035;-43
2022/10/01 05:38:59;;;;;;;19.00;11.15;;;;;;;24.10;45.16;100069.38;5110260;28;20107;-43
2022/10/01 05:41:25;;;;;;;7.15;4.28;;;;;;;24.61;43.79;100064.59;5110941;28;20020;-43
2022/10/01 05:43:50;;;;;;;9.23;4.95;;;;;;;25.04;42.78;100070.88;5110830;28;20020;-43
2022/10/01 05:46:16;;;;;;;8.05;4.85;;;;;;;25.50;42.12;100072.97;5102065;28;20441;-42
2022/10/01 05:48:41;;;;;;;12.23;6.70;;;;;;;26.07;40.98;100085.75;5101404;28;20034;-43
2022/10/01 05:51:07;;;;;;;12.65;8.15;;;;;;;26.39;39.88;100087.66;5105391;28;20039;-42
2022/10/01 05:53:36;;;;;;;15.10;12.27;;;;;;;26.64;39.67;100082.84;5110395;28;20038;-42
2022/10/01 05:56:02;;;;;;;7.85;4.95;;;;;;;26.77;38.97;100098.41;5110420;28;20024;-43
2022/10/01 05:58:28;;;;;;;13.30;8.00;;;;;;;26.81;39.62;100104.88;5110320;28;20098;-42
2022/10/01 06:00:54;;;;;;;12.15;8.38;;;;;;;26.84;39.19;100101.53;5110407;28;20394;-44
2022/10/01 06:03:20;;;;;;;11.25;9.75;;;;;;;26.84;39.06;100098.81;5110331;28;20020;-47
2022/10/01 06:05:45;;;;;;;9.73;5.40;;;;;;;26.55;39.35;100081.91;5109922;28;20096;-47
2022/10/01 06:08:11;;;;;;;7.00;4.50;;;;;;;26.89;38.78;100074.13;5108843;28;20470;-44
2022/10/01 06:10:37;;;;;;;8.52;4.55;;;;;;;27.43;37.90;100087.22;5109041;28;20028;-45
2022/10/01 06:13:07;;;;;;;9.45;5.13;;;;;;;27.82;37.60;100099.44;5108405;28;20023;-41
2022/10/01 06:15:36;;;;;;;7.55;5.82;;;;;;;28.04;36.72;100102.19;5108838;28;20102;-43
2022/10/01 06:18:12;;;;;;;7.93;4.13;;;;;;;28.35;35.88;100103.34;5108406;28;20019;-44
2022/10/01 06:20:39;;;;;;;7.55;3.75;;;;;;;28.39;35.44;100105.16;5108646;28;20607;-42
2022/10/01 06:23:08;;;;;;;8.07;3.90;;;;;;;28.24;36.15;100109.09;5110161;28;20023;-42
2022/10/01 06:25:36;;;;;;;7.13;3.95;;;;;;;28.49;35.48;100106.00;5108810;28;20572;-42
2022/10/01 06:28:01;;;;;;;17.33;7.93;;;;;;;28.70;34.68;100095.31;5109540;28;20055;-44
2022/10/01 06:30:30;;;;;;;9.63;6.05;;;;;;;28.68;34.90;100108.53;5109805;28;20106;-43
2022/10/01 06:33:22;;;;;;;11.90;6.03;;;;;;;29.35;34.12;100113.72;5112010;28;20084;-43
2022/10/01 06:35:50;;;;;;;9.52;3.97;;;;;;;29.90;33.14;100104.06;5110219;28;20038;-43
2022/10/01 06:38:21;;;;;;;13.40;6.40;;;;;;;30.07;32.76;100103.25;5113778;28;20032;-44
2022/10/01 06:40:55;;;;;;;20.95;9.15;;;;;;;30.30;33.67;100120.28;5113804;28;20027;-42
2022/10/01 06:43:21;;;;;;;12.57;5.38;;;;;;;30.52;31.96;100112.97;5113628;28;20084;-43
2022/10/01 06:45:47;;;;;;;7.15;3.92;;;;;;;30.54;31.55;100108.78;5113252;28;20150;-44
2022/10/01 06:48:14;;;;;;;7.15;3.80;;;;;;;30.16;33.07;100106.78;5113116;28;20118;-43
2022/10/01 06:50:41;;;;;;;7.93;3.42;;;;;;;30.18;32.74;100115.50;5112924;28;20034;-44
2022/10/01 06:53:07;;;;;;;13.30;6.20;;;;;;;30.16;32.87;100109.53;5112992;28;20069;-43
2022/10/01 06:55:34;;;;;;;13.52;9.93;;;;;;;29.90;32.99;100112.31;5112901;28;20731;-43
2022/10/01 06:58:02;;;;;;;10.10;6.15;;;;;;;29.70;33.03;100105.53;5112896;28;20039;-42
2022/10/01 07:00:29;;;;;;;17.38;10.52;;;;;;;29.61;32.43;100101.97;5112278;28;20036;-42
2022/10/01 07:02:55;;;;;;;11.20;5.07;;;;;;;28.10;35.32;100107.53;5110784;28;20039;-43
2022/10/01 07:05:24;;;;;;;8.55;4.65;;;;;;;28.81;34.58;100110.34;5111764;28;20034;-43
2022/10/01 07:07:50;;;;;;;;;;;;;;;29.63;32.77;100107.94;5111627;28;20035;-44
2022/10/01 07:10:19;;;;;;;6.80;3.92;;;;;;;30.05;32.38;100115.69;5111556;28;19912;-43
2022/10/01 07:12:47;;;;;;;6.72;3.30;;;;;;;30.42;32.04;100113.34;5112147;28;20035;-44
2022/10/01 07:15:14;;;;;;;7.90;3.60;;;;;;;30.88;31.21;100117.19;5111222;28;20471;-43
2022/10/01 07:17:48;;;;;;;6.45;3.60;;;;;;;31.28;31.09;100136.06;5111473;28;20168;-46
2022/10/01 07:20:16;;;;;;;7.20;3.40;;;;;;;31.69;30.31;100145.50;5111988;28;20428;-42
2022/10/01 07:22:42;;;;;;;5.95;3.22;;;;;;;32.01;30.13;100151.41;5111309;28;20019;-43
2022/10/01 07:25:08;;;;;;;7.88;3.90;;;;;;;32.03;29.60;100143.63;5111933;28;20070;-42
2022/10/01 07:27:34;;;;;;;8.20;4.20;;;;;;;32.31;29.23;100141.06;5112367;28;20023;-43
2022/10/01 07:29:59;;;;;;;8.35;3.78;;;;;;;31.77;29.59;100131.66;5112016;27;20028;-43
2022/10/01 07:32:25;;;;;;;5.60;3.60;;;;;;;32.14;29.30;100129.09;5112265;28;20034;-42
2022/10/01 07:34:50;;;;;;;6.93;3.40;;;;;;;32.73;28.66;100127.19;5111954;28;20107;-43
2022/10/01 07:37:16;;;;;;;7.00;3.22;;;;;;;31.88;29.53;100131.28;5111694;28;20110;-43
2022/10/01 07:39:42;;;;;;;8.32;3.28;;;;;;;32.70;28.40;100127.84;5111937;28;20027;-42
2022/10/01 07:42:07;;;;;;;9.07;3.10;;;;;;;33.10;28.25;100111.44;5112160;28;20026;-42
2022/10/01 07:44:33;;;;;;;4.45;2.95;;;;;;;33.52;27.58;100115.81;5110886;28;20027;-45
2022/10/01 07:46:58;;;;;;;4.65;3.10;;;;;;;33.84;26.84;100115.97;5109819;28;20055;-43
2022/10/01 07:49:24;;;;;;;5.32;3.15;;;;;;;33.25;27.28;100120.16;5111551;28;20023;-43
2022/10/01 07:51:52;;;;;;;7.95;2.90;;;;;;;33.37;27.54;100122.06;5111407;28;20031;-42
2022/10/01 07:54:18;;;;;;;7.38;4.18;;;;;;;33.69;27.40;100115.56;5111430;28;20656;-43
2022/10/01 07:56:43;;;;;;;5.88;3.50;;;;;;;34.12;26.55;100107.69;5108797;28;20024;-44
2022/10/01 07:59:09;;;;;;;7.68;4.10;;;;;;;34.32;25.67;100105.84;5110727;28;20028;-41
2022/10/01 08:01:36;;;;;;;7.05;4.10;;;;;;;33.17;27.44;100101.78;5110600;28;20076;-42
2022/10/01 08:05:16;;;;;;;9.30;4.30;;;;;;;33.84;26.93;100100.22;5110888;28;20456;-43
2022/10/01 08:06:51;;;;;;;5.47;3.42;;;;;;;34.35;25.80;100109.84;5109796;28;20038;-42
2022/10/01 08:09:17;;;;;;;5.63;3.17;;;;;;;34.48;26.25;100100.31;5111049;28;20024;-43
2022/10/01 08:11:44;;;;;;;4.57;2.90;;;;;;;35.12;25.26;100111.34;5111067;28;20028;-43
2022/10/01 08:14:10;;;;;;;5.05;2.90;;;;;;;35.24;24.98;100114.00;5110695;28;20043;-46
2022/10/01 08:16:38;;;;;;;4.45;2.92;;;;;;;35.14;24.87;100114.53;5111019;28;20028;-44
2022/10/01 08:19:03;;;;;;;5.15;3.30;;;;;;;35.35;24.76;100117.00;5110468;28;20023;-43
2022/10/01 08:21:29;;;;;;;5.72;3.40;;;;;;;35.38;25.25;100105.22;5110556;28;20398;-43
2022/10/01 08:23:54;;;;;;;3.50;2.80;;;;;;;35.07;25.24;100083.94;5111126;28;20027;-43
2022/10/01 08:26:20;;;;;;;4.57;2.90;;;;;;;35.44;24.46;100090.72;5111022;28;20027;-43
2022/10/01 08:28:45;;;;;;;4.72;2.80;;;;;;;35.81;24.07;100083.94;5110201;28;20546;-44
2022/10/01 08:31:11;;;;;;;5.78;2.90;;;;;;;35.61;23.81;100074.84;5109934;28;20122;-43
2022/10/01 08:33:37;;;;;;;3.83;2.75;;;;;;;35.68;23.59;100074.22;5110315;28;20024;-42
2022/10/01 08:36:07;;;;;;;4.55;2.88;;;;;;;35.51;23.76;100062.41;5110539;28;20023;-44
2022/10/01 08:38:33;;;;;;;7.45;3.20;;;;;;;35.35;24.13;100059.69;5109825;27;20024;-45
2022/10/01 08:41:08;;;;;;;6.57;3.00;;;;;;;34.74;25.68;100052.03;5110449;28;20042;-45
2022/10/01 08:43:37;;;;;;;4.32;2.80;;;;;;;33.10;26.54;100045.28;5110327;28;20035;-45
2022/10/01 08:46:10;;;;;;;5.95;2.60;;;;;;;34.05;25.12;100041.22;5110314;28;20134;-44
2022/10/01 08:48:52;;;;;;;6.60;2.70;;;;;;;34.52;24.39;100045.16;5110598;28;20028;-41
2022/10/01 08:51:31;;;;;;;8.43;3.30;;;;;;;32.91;26.46;100031.28;5110140;28;20028;-47
2022/10/01 08:53:56;;;;;;;;;;;;;;;33.73;26.39;100043.94;5111124;28;20026;-37
2022/10/01 08:56:30;;;;;;;6.63;3.23;;;;;;;34.39;25.85;100050.00;5109988;28;19907;-37
2022/10/01 08:58:59;;;;;;;7.63;3.13;;;;;;;34.53;26.01;100069.66;5109517;28;20313;-37
2022/10/01 09:01:28;;;;;;;;;;;;;;;34.83;25.37;100071.97;5110889;28;20129;-39
2022/10/01 09:03:54;;;;;;;7.77;3.10;;;;;;;35.03;24.94;100076.41;5110851;28;19986;-37
2022/10/01 09:06:24;;;;;;;7.13;3.50;;;;;;;35.23;24.98;100081.97;5111150;28;20027;-37
2022/10/01 09:09:02;;;;;;;5.60;3.50;;;;;;;35.27;25.16;100068.22;5110745;28;20035;-37
2022/10/01 09:11:28;;;;;;;5.88;3.35;;;;;;;35.40;24.62;100042.03;5110431;28;20035;-38
2022/10/01 09:14:42;;;;;;;5.68;3.30;;;;;;;35.41;24.20;100040.84;5109680;28;20031;-36
2022/10/01 09:17:20;;;;;;;5.97;3.80;;;;;;;35.14;25.22;100050.94;5108844;28;20053;-37
2022/10/01 09:20:15;;;;;;;6.20;4.10;;;;;;;35.19;25.05;100053.44;5108212;28;20070;-36
2022/10/01 09:22:53;;;;;;;5.50;4.10;;;;;;;35.20;24.82;100061.38;5110286;28;20024;-36
2022/10/01 09:25:26;;;;;;;7.67;3.80;;;;;;;34.83;24.82;100066.47;5110281;28;20031;-36
2022/10/01 09:28:05;;;;;;;7.30;4.00;;;;;;;34.69;25.12;100083.50;5109982;28;20269;-37
2022/10/01 09:30:32;;;;;;;5.35;3.75;;;;;;;34.54;25.42;100059.41;5108884;28;20051;-38
2022/10/01 09:33:04;;;;;;;7.68;3.25;;;;;;;34.75;25.67;100062.72;5109674;28;20494;-36
2022/10/01 09:36:04;;;;;;;7.78;5.55;;;;;;;34.87;25.60;100072.88;5109018;28;20498;-36
2022/10/01 09:38:37;;;;;;;7.88;5.45;;;;;;;34.60;25.01;100064.31;5107945;28;20517;-36
2022/10/01 09:41:03;;;;;;;8.50;4.20;;;;;;;34.46;25.40;100064.78;5104764;28;20026;-36
2022/10/01 09:43:33;;;;;;;9.43;3.80;;;;;;;33.91;26.14;100047.19;5109146;28;20503;-36
2022/10/01 09:46:01;;;;;;;7.60;3.70;;;;;;;33.83;25.96;100065.50;5106914;28;20023;-37
2022/10/01 09:48:30;;;;;;;10.93;7.97;;;;;;;33.96;26.16;100066.22;5109548;28;20016;-35
2022/10/01 09:51:05;;;;;;;5.97;5.32;;;;;;;33.99;26.30;100062.78;5109931;28;20539;-37
2022/10/01 09:53:42;;;;;;;7.80;4.10;;;;;;;34.03;26.09;100057.34;5109777;28;20115;-36
2022/10/01 09:56:18;;;;;;;5.03;3.50;;;;;;;34.15;25.81;100053.69;5109657;28;20110;-36
2022/10/01 09:58:49;;;;;;;5.90;3.50;;;;;;;34.08;25.81;100038.56;5110213;28;20054;-37
2022/10/01 10:01:21;;;;;;;8.30;3.85;;;;;;;34.04;25.78;100032.16;5110166;28;20502;-37
2022/10/01 10:03:55;;;;;;;6.25;3.67;;;;;;;33.82;25.62;100025.25;5109773;28;20042;-37
2022/10/01 10:06:27;;;;;;;4.88;3.20;;;;;;;33.68;26.11;100056.03;5109432;28;20020;-37
2022/10/01 10:08:55;;;;;;;5.35;3.58;;;;;;;33.67;26.17;100072.94;5113242;28;20032;-37
2022/10/01 10:11:24;;;;;;;4.97;3.70;;;;;;;33.64;26.03;100066.19;5113400;28;20024;-37
2022/10/01 10:13:53;;;;;;;9.43;3.80;;;;;;;33.55;26.84;100061.91;5113153;28;20530;-37
2022/10/01 10:16:26;;;;;;;7.13;3.72;;;;;;;33.00;26.99;100078.81;5112452;28;20072;-37
2022/10/01 10:19:01;;;;;;;7.15;3.40;;;;;;;32.92;27.25;100099.84;5113088;28;20019;-37
2022/10/01 10:21:29;;;;;;;5.68;3.17;;;;;;;33.00;27.31;100097.31;5112708;28;20108;-37
2022/10/01 10:23:56;;;;;;;;;;;;;;;32.97;27.56;100089.72;5111871;28;20359;-36
2022/10/01 10:26:28;;;;;;;6.47;3.70;;;;;;;32.79;27.98;100116.72;5112702;28;19914;-37
2022/10/01 10:28:57;;;;;;;5.15;3.75;;;;;;;32.72;28.51;100109.03;5112860;28;20107;-37
2022/10/01 10:31:25;;;;;;;7.97;4.05;;;;;;;32.73;27.92;100107.88;5112716;28;20171;-36
2022/10/01 10:34:17;;;;;;;6.65;4.00;;;;;;;32.59;28.47;100119.22;5112704;28;20070;-37
2022/10/01 10:36:47;;;;;;;4.78;3.63;;;;;;;31.94;29.44;100118.91;5103522;28;20059;-37
2022/10/01 10:39:30;;;;;;;5.10;3.83;;;;;;;31.26;30.45;100119.91;5112846;28;20099;-37
2022/10/01 10:41:58;;;;;;;6.00;3.67;;;;;;;30.57;31.61;100119.09;5112962;28;20016;-36
2022/10/01 10:44:29;;;;;;;9.23;4.43;;;;;;;29.89;32.67;100146.34;5112568;28;20027;-36
2022/10/01 10:46:59;;;;;;;8.73;5.03;;;;;;;29.85;32.90;100145.38;5112242;28;20031;-36
2022/10/01 10:49:31;;;;;;;9.38;6.25;;;;;;;29.48;33.44;100147.59;5111773;28;20038;-36
2022/10/01 10:51:59;;;;;;;12.23;7.45;;;;;;;29.76;33.08;100141.84;5112194;28;20430;-36
2022/10/01 10:54:39;;;;;;;10.63;7.85;;;;;;;29.88;32.21;100119.25;5112396;28;20028;-36
2022/10/01 10:57:20;;;;;;;;;;;;;;;30.14;32.76;100120.03;5112956;28;20463;-37
2022/10/01 11:00:11;;;;;;;11.85;7.70;;;;;;;30.08;32.99;100131.47;5112259;28;20382;-37
2022/10/01 11:02:41;;;;;;;14.68;9.70;;;;;;;30.39;32.73;100128.56;5112261;28;20443;-36
2022/10/01 11:05:19;;;;;;;13.60;7.20;;;;;;;30.29;32.88;100143.41;5111972;28;20479;-36
2022/10/01 11:07:46;;;;;;;8.63;5.70;;;;;;;29.44;33.59;100132.91;5111894;27;20023;-37
2022/10/01 11:10:17;;;;;;;11.90;5.70;;;;;;;29.23;34.32;100130.00;5112075;28;20019;-36
2022/10/01 11:12:56;;;;;;;9.68;5.30;;;;;;;29.58;34.00;100160.97;5111948;28;20093;-36
2022/10/01 11:15:36;;;;;;;9.15;5.20;;;;;;;29.38;34.75;100189.03;5111780;28;20119;-37
2022/10/01 11:18:16;;;;;;;9.48;4.72;;;;;;;29.23;34.80;100151.91;5111623;27;20046;-37
2022/10/01 11:20:59;;;;;;;11.75;5.38;;;;;;;29.33;34.87;100139.84;5110896;28;20055;-37
2022/10/01 11:24:01;;;;;;;10.90;4.93;;;;;;;29.46;35.44;100129.88;5111768;28;20027;-37
2022/10/01 11:27:05;;;;;;;27.25;15.95;;;;;;;29.10;36.64;100104.31;5112179;28;20403;-36
2022/10/01 11:29:30;;;;;;;7.70;4.97;;;;;;;28.84;36.74;100080.41;5028479;28;20119;-36
2022/10/01 11:32:28;;;;;;;10.40;4.95;;;;;;;29.24;36.19;100069.38;5093885;28;20051;-37
2022/10/01 11:35:08;;;;;;;9.18;4.22;;;;;;;29.53;35.89;100075.34;5111508;28;20410;-37
2022/10/01 11:37:41;;;;;;;9.90;4.57;;;;;;;29.37;36.28;100075.81;5111525;28;20445;-37
2022/10/01 11:40:26;;;;;;;8.93;4.57;;;;;;;29.33;35.18;100035.69;5111324;28;20069;-37